Time;durP1;ratioP1;P1;durP2;ratioP2;P2;SDS_P1;SDS_P2;PMS_P1;PMS_P2;Temp;Humidity;BMP_temperature;BMP_pressure;BME280_temperature;BME280_humidity;BME280_pressure;Samples;Min_cycle;Max_cycle;Signal;HPM_P1;HPM_P2
2023/08/24 00:02:06;;;;;;;2.45;0.50;;;17.30;99.90;;;;;;4963252;28;20086;-82
2023/08/24 00:04:33;;;;;;;2.35;0.60;;;17.30;99.90;;;;;;4944984;28;20051;-84
2023/08/24 00:06:59;;;;;;;1.40;0.52;;;17.30;99.90;;;;;;4956650;28;20035;-81
2023/08/24 00:09:25;;;;;;;2.60;0.60;;;17.40;99.90;;;;;;4961037;28;20043;-81
2023/08/24 00:11:51;;;;;;;1.17;0.50;;;17.30;99.90;;;;;;4960060;28;20395;-83
2023/08/24 00:14:17;;;;;;;1.52;0.50;;;17.30;99.90;;;;;;4961686;28;20407;-83
2023/08/24 00:16:42;;;;;;;2.13;0.60;;;17.30;99.90;;;;;;4954716;28;20032;-82
2023/08/24 00:19:08;;;;;;;2.35;0.60;;;17.30;99.90;;;;;;4957686;28;20055;-80
2023/08/24 00:21:34;;;;;;;1.63;0.50;;;17.30;99.90;;;;;;4959533;28;20081;-81
2023/08/24 00:23:59;;;;;;;1.40;0.50;;;17.30;99.90;;;;;;4959871;28;20082;-84
2023/08/24 00:26:25;;;;;;;2.13;0.57;;;17.30;99.90;;;;;;4957126;28;20464;-80
2023/08/24 00:28:51;;;;;;;2.05;0.57;;;17.40;99.90;;;;;;4948885;28;20031;-81
2023/08/24 00:31:19;;;;;;;1.30;0.50;;;17.40;99.90;;;;;;4960765;28;20058;-80
2023/08/24 00:33:44;;;;;;;2.33;0.70;;;17.40;99.90;;;;;;4961738;28;20058;-81
2023/08/24 00:36:10;;;;;;;1.88;0.60;;;17.30;99.90;;;;;;4963621;28;20064;-81
2023/08/24 00:38:36;;;;;;;1.83;0.60;;;17.30;99.90;;;;;;4959666;28;20023;-80
2023/08/24 00:41:02;;;;;;;1.63;0.57;;;17.20;99.90;;;;;;4949358;28;20045;-80
2023/08/24 00:43:28;;;;;;;2.30;0.50;;;17.30;99.90;;;;;;4961290;28;20432;-81
2023/08/24 00:45:58;;;;;;;1.25;0.60;;;17.30;99.90;;;;;;4961438;28;20031;-80
2023/08/24 00:48:25;;;;;;;2.63;0.60;;;17.30;99.90;;;;;;4960481;28;20023;-83
2023/08/24 00:50:54;;;;;;;;;;;17.20;99.90;;;;;;4949694;28;20496;-81
2023/08/24 00:53:21;;;;;;;0.93;0.40;;;17.10;99.90;;;;;;4951845;28;19911;-80
2023/08/24 00:55:46;;;;;;;1.27;0.80;;;17.10;99.90;;;;;;4963259;28;20031;-81
2023/08/24 00:58:14;;;;;;;2.80;0.70;;;17.00;99.90;;;;;;4951243;28;20030;-81
2023/08/24 01:00:41;;;;;;;1.40;0.60;;;17.00;99.90;;;;;;4965176;28;20491;-83
2023/08/24 01:03:06;;;;;;;1.77;0.50;;;17.00;99.90;;;;;;4965450;28;20043;-80
2023/08/24 01:05:32;;;;;;;1.50;0.70;;;16.90;99.90;;;;;;4957735;28;20501;-82
2023/08/24 01:07:58;;;;;;;2.60;0.85;;;17.00;99.90;;;;;;4957736;28;20542;-81
2023/08/24 01:10:27;;;;;;;2.92;0.70;;;17.00;99.90;;;;;;4969720;28;20046;-80
2023/08/24 01:12:59;;;;;;;2.22;0.55;;;16.90;99.90;;;;;;4975210;28;20106;-81
2023/08/24 01:15:24;;;;;;;1.50;0.60;;;16.90;99.90;;;;;;4953153;28;20396;-85
2023/08/24 01:17:52;;;;;;;2.00;0.60;;;16.90;99.90;;;;;;4962935;28;20023;-81
2023/08/24 01:20:18;;;;;;;1.88;0.60;;;16.90;99.90;;;;;;4956861;28;20030;-82
2023/08/24 01:23:02;;;;;;;3.22;0.70;;;17.00;99.90;;;;;;4957338;28;20027;-80
2023/08/24 01:25:34;;;;;;;2.67;0.95;;;17.00;99.90;;;;;;4967635;28;20024;-80
2023/08/24 01:28:03;;;;;;;1.88;0.60;;;17.00;99.90;;;;;;4957864;28;20028;-81
2023/08/24 01:30:30;;;;;;;1.47;0.50;;;17.10;99.90;;;;;;4943722;28;20038;-82
2023/08/24 01:32:56;;;;;;;3.10;0.60;;;17.10;99.90;;;;;;4963971;28;20314;-82
2023/08/24 01:35:22;;;;;;;2.97;0.82;;;17.10;99.90;;;;;;4960286;28;20512;-84
2023/08/24 01:37:50;;;;;;;2.30;0.70;;;17.00;99.90;;;;;;4962675;28;20055;-80
2023/08/24 01:40:30;;;;;;;1.92;0.73;;;16.90;99.90;;;;;;4955112;28;20413;-83
2023/08/24 01:43:03;;;;;;;2.88;0.82;;;16.90;99.90;;;;;;4963073;28;20033;-82
2023/08/24 01:45:31;;;;;;;1.52;0.60;;;16.90;99.90;;;;;;4957803;28;20110;-81
2023/08/24 01:47:58;;;;;;;2.70;0.70;;;16.80;99.90;;;;;;4960276;28;20094;-82
2023/08/24 01:50:25;;;;;;;1.80;0.90;;;16.90;99.90;;;;;;4964274;28;20122;-81
2023/08/24 01:52:51;;;;;;;1.45;0.60;;;16.90;99.90;;;;;;4958539;28;20026;-81
2023/08/24 01:55:19;;;;;;;2.78;0.80;;;16.90;99.90;;;;;;4963816;28;20105;-80
2023/08/24 01:57:46;;;;;;;1.83;0.82;;;16.90;99.90;;;;;;4965460;28;20031;-80
2023/08/24 02:00:12;;;;;;;2.72;1.10;;;16.90;99.90;;;;;;4945537;28;20158;-80
2023/08/24 02:02:42;;;;;;;2.83;0.82;;;16.90;99.90;;;;;;4960096;28;20027;-81
2023/08/24 02:05:08;;;;;;;2.20;1.00;;;16.90;99.90;;;;;;4941874;28;20518;-85
2023/08/24 02:07:34;;;;;;;3.03;1.02;;;17.00;99.90;;;;;;4957741;28;20023;-82
2023/08/24 02:09:59;;;;;;;2.65;1.15;;;17.00;99.90;;;;;;4966537;28;20078;-80
2023/08/24 02:12:25;;;;;;;2.80;1.17;;;17.00;99.90;;;;;;4951127;28;20468;-86
2023/08/24 02:14:51;;;;;;;5.22;1.10;;;17.00;99.90;;;;;;4942111;28;20535;-81
2023/08/24 02:17:16;;;;;;;1.88;0.95;;;17.00;99.90;;;;;;4958796;28;20029;-82
2023/08/24 02:19:42;;;;;;;1.95;0.80;;;17.00;99.90;;;;;;4946071;28;20062;-80
2023/08/24 02:22:08;;;;;;;2.17;0.88;;;17.00;99.90;;;;;;4957481;28;20027;-84
2023/08/24 02:24:34;;;;;;;1.70;0.70;;;17.00;99.90;;;;;;4962054;28;20030;-82
2023/08/24 02:27:00;;;;;;;2.40;0.85;;;17.00;99.90;;;;;;4956939;28;20020;-81
2023/08/24 02:29:26;;;;;;;4.05;1.48;;;17.00;99.90;;;;;;4962636;28;20396;-81
2023/08/24 02:31:51;;;;;;;3.33;1.10;;;17.00;99.90;;;;;;4941729;28;20027;-81
2023/08/24 02:34:18;;;;;;;3.63;0.85;;;17.00;99.90;;;;;;4958305;28;20115;-83
2023/08/24 02:36:44;;;;;;;2.13;1.10;;;17.00;99.90;;;;;;4960988;28;20039;-83
2023/08/24 02:39:10;;;;;;;3.40;0.93;;;16.90;99.90;;;;;;4958279;28;20035;-81
2023/08/24 02:41:36;;;;;;;2.05;0.93;;;16.90;99.90;;;;;;4942990;28;20174;-82
2023/08/24 02:44:03;;;;;;;2.50;0.88;;;16.90;99.90;;;;;;4955956;28;20106;-82
2023/08/24 02:46:29;;;;;;;1.95;1.10;;;17.00;99.90;;;;;;4962266;28;20527;-81
2023/08/24 02:48:54;;;;;;;2.58;1.50;;;17.00;99.90;;;;;;4942220;28;20035;-81
2023/08/24 02:51:23;;;;;;;2.17;1.15;;;17.00;99.90;;;;;;4957200;28;20066;-81
2023/08/24 02:53:50;;;;;;;1.80;0.82;;;17.00;99.90;;;;;;4958634;28;20086;-81
2023/08/24 02:56:15;;;;;;;3.20;1.30;;;17.00;99.90;;;;;;4958549;28;20369;-81
2023/08/24 02:58:41;;;;;;;2.70;1.23;;;17.10;99.90;;;;;;4942174;28;20117;-81
2023/08/24 03:01:07;;;;;;;2.47;1.27;;;17.10;99.90;;;;;;4955872;28;20035;-83
2023/08/24 03:03:34;;;;;;;2.92;1.42;;;17.20;99.90;;;;;;4954745;28;20073;-83
2023/08/24 03:06:03;;;;;;;2.13;1.00;;;17.20;99.90;;;;;;4953351;28;20483;-83
2023/08/24 03:08:30;;;;;;;1.67;1.05;;;17.10;99.90;;;;;;4963427;28;20066;-81
2023/08/24 03:10:56;;;;;;;2.25;1.00;;;17.20;99.90;;;;;;4963231;28;20062;-82
2023/08/24 03:13:22;;;;;;;2.78;1.25;;;17.20;99.90;;;;;;4943289;28;20398;-81
2023/08/24 03:15:48;;;;;;;2.33;1.40;;;17.30;99.90;;;;;;4943018;28;20031;-84
2023/08/24 03:18:16;;;;;;;4.10;1.48;;;17.30;99.90;;;;;;4954921;28;20475;-84
2023/08/24 03:20:45;;;;;;;4.32;1.73;;;17.40;99.90;;;;;;4957898;28;20380;-82
2023/08/24 03:23:10;;;;;;;3.47;1.55;;;17.30;99.90;;;;;;4964005;28;20139;-83
2023/08/24 03:25:38;;;;;;;3.30;1.33;;;17.30;99.90;;;;;;4941563;28;20150;-85
2023/08/24 03:28:06;;;;;;;2.25;1.30;;;17.30;99.90;;;;;;4947896;28;20027;-81
2023/08/24 03:30:32;;;;;;;3.30;1.20;;;17.30;99.90;;;;;;4956769;28;20049;-86
2023/08/24 03:32:59;;;;;;;2.15;1.45;;;17.30;99.90;;;;;;4955135;28;20027;-81
2023/08/24 03:35:25;;;;;;;3.55;1.40;;;17.30;99.90;;;;;;4947320;28;20026;-84
2023/08/24 03:37:51;;;;;;;3.75;1.42;;;17.30;99.90;;;;;;4962452;28;20034;-87
2023/08/24 03:40:17;;;;;;;4.05;1.55;;;17.30;99.90;;;;;;4948152;28;20031;-82
2023/08/24 03:42:43;;;;;;;2.80;1.13;;;17.30;99.90;;;;;;4957756;28;20094;-88
2023/08/24 03:45:09;;;;;;;3.47;1.63;;;17.30;99.90;;;;;;4964361;28;20034;-81
2023/08/24 03:47:34;;;;;;;2.97;1.67;;;17.30;99.90;;;;;;4942122;28;20108;-81
2023/08/24 03:50:00;;;;;;;4.35;1.70;;;17.30;99.90;;;;;;4943129;28;20055;-82
2023/08/24 03:52:27;;;;;;;4.15;2.15;;;17.30;99.90;;;;;;4949646;28;20369;-86
2023/08/24 03:54:52;;;;;;;3.47;1.38;;;17.30;99.90;;;;;;4947243;28;20038;-81
2023/08/24 03:57:18;;;;;;;2.42;1.52;;;17.30;99.90;;;;;;4959522;28;20023;-85
2023/08/24 03:59:44;;;;;;;3.65;1.90;;;17.30;99.90;;;;;;4960099;28;20035;-82
2023/08/24 04:02:10;;;;;;;2.45;1.55;;;17.30;99.90;;;;;;4956907;28;20027;-83
2023/08/24 04:04:35;;;;;;;1.95;1.05;;;17.30;99.90;;;;;;4956698;28;20432;-82
2023/08/24 04:07:02;;;;;;;3.00;1.25;;;17.30;99.90;;;;;;4951348;28;20069;-80
2023/08/24 04:09:28;;;;;;;2.33;1.50;;;17.30;99.90;;;;;;4966478;28;20035;-81
2023/08/24 04:11:54;;;;;;;3.03;2.08;;;17.30;99.90;;;;;;4951932;28;20027;-84
2023/08/24 04:14:20;;;;;;;2.90;1.50;;;17.20;99.90;;;;;;4963221;28;20034;-81
2023/08/24 04:16:47;;;;;;;3.78;1.48;;;17.30;99.90;;;;;;4950000;28;20073;-87
2023/08/24 04:19:13;;;;;;;4.05;1.90;;;17.20;99.90;;;;;;4944580;28;20562;-81
2023/08/24 04:21:39;;;;;;;2.75;1.55;;;17.20;99.90;;;;;;4961551;28;20027;-82
2023/08/24 04:24:05;;;;;;;3.55;1.85;;;17.20;99.90;;;;;;4959237;28;20083;-81
2023/08/24 04:26:31;;;;;;;3.55;1.88;;;17.10;99.90;;;;;;4967165;28;20376;-82
2023/08/24 04:28:57;;;;;;;2.85;1.65;;;17.10;99.90;;;;;;4953530;28;20134;-81
2023/08/24 04:31:23;;;;;;;2.72;1.40;;;17.10;99.90;;;;;;4966251;28;20034;-90
2023/08/24 04:33:49;;;;;;;4.45;1.88;;;17.10;99.90;;;;;;4948128;28;20035;-81
2023/08/24 04:36:15;;;;;;;2.10;1.58;;;17.10;99.90;;;;;;4963040;28;20027;-82
2023/08/24 04:38:40;;;;;;;3.15;2.03;;;17.10;99.90;;;;;;4961394;28;20186;-83
2023/08/24 04:41:08;;;;;;;3.70;2.05;;;17.10;99.90;;;;;;4965790;28;20118;-83
2023/08/24 04:43:36;;;;;;;2.30;1.75;;;17.10;99.90;;;;;;4966189;28;20488;-82
2023/08/24 04:46:02;;;;;;;3.67;1.67;;;17.10;99.90;;;;;;4958714;28;20082;-81
2023/08/24 04:48:32;;;;;;;2.92;1.88;;;17.10;99.90;;;;;;4960680;28;20026;-84
2023/08/24 04:50:58;;;;;;;;;;;17.00;99.90;;;;;;4951525;28;20138;-82
2023/08/24 04:53:24;;;;;;;1.88;0.80;;;17.00;99.90;;;;;;4959104;28;20004;-80
2023/08/24 04:55:50;;;;;;;3.70;1.92;;;17.00;99.90;;;;;;4959644;28;20027;-81
2023/08/24 04:58:15;;;;;;;4.05;1.52;;;17.00;99.90;;;;;;4961775;28;20027;-84
2023/08/24 05:00:42;;;;;;;2.22;1.17;;;16.90;99.90;;;;;;4951892;28;20066;-82
2023/08/24 05:03:08;;;;;;;2.35;1.55;;;16.90;99.90;;;;;;4967100;28;20115;-82
2023/08/24 05:05:35;;;;;;;3.13;1.65;;;16.90;99.90;;;;;;4947246;28;20035;-82
2023/08/24 05:08:02;;;;;;;3.38;2.08;;;17.00;99.90;;;;;;4965079;28;20039;-80
2023/08/24 05:10:32;;;;;;;4.97;2.17;;;17.00;99.90;;;;;;4958652;28;20042;-83
2023/08/24 05:12:58;;;;;;;3.42;1.48;;;17.00;99.90;;;;;;4939630;28;20031;-81
2023/08/24 05:15:24;;;;;;;3.15;1.77;;;17.00;99.90;;;;;;4937588;28;20676;-83
2023/08/24 05:17:52;;;;;;;2.60;1.65;;;17.00;99.90;;;;;;4943673;28;20379;-81
2023/08/24 05:20:18;;;;;;;2.83;1.60;;;17.00;99.90;;;;;;4950456;28;20046;-81
2023/08/24 05:22:44;;;;;;;6.65;2.30;;;17.10;99.90;;;;;;4945928;28;20391;-81
2023/08/24 05:25:09;;;;;;;3.08;1.95;;;17.10;99.90;;;;;;4947914;28;20035;-80
2023/08/24 05:27:35;;;;;;;2.95;1.73;;;17.20;99.90;;;;;;4945856;28;20037;-86
2023/08/24 05:30:01;;;;;;;2.85;1.50;;;17.20;99.90;;;;;;4936484;28;20046;-82
2023/08/24 05:32:27;;;;;;;4.25;1.92;;;17.20;99.90;;;;;;4936544;28;20510;-81
2023/08/24 05:34:52;;;;;;;2.08;1.35;;;17.20;99.90;;;;;;4960004;28;20569;-82
2023/08/24 05:37:18;;;;;;;1.92;1.23;;;17.20;99.90;;;;;;4958859;28;20146;-82
2023/08/24 05:39:44;;;;;;;2.83;2.47;;;17.10;99.90;;;;;;4957009;28;20549;-81
2023/08/24 05:42:10;;;;;;;3.20;1.73;;;17.10;99.90;;;;;;4941761;28;20118;-80
2023/08/24 05:44:35;;;;;;;3.38;2.00;;;17.20;99.90;;;;;;4961249;28;20046;-81
2023/08/24 05:47:01;;;;;;;3.60;2.38;;;17.20;99.90;;;;;;4950707;28;20030;-83
2023/08/24 05:49:28;;;;;;;2.55;1.73;;;17.20;99.90;;;;;;4945248;28;20070;-81
2023/08/24 05:51:53;;;;;;;4.20;2.05;;;17.20;99.90;;;;;;4957063;28;20427;-84
2023/08/24 05:54:19;;;;;;;2.72;1.85;;;17.30;99.90;;;;;;4959085;28;20035;-80
2023/08/24 05:56:46;;;;;;;4.03;1.90;;;17.40;99.90;;;;;;4964020;28;20023;-83
2023/08/24 05:59:12;;;;;;;3.03;2.13;;;17.40;99.90;;;;;;4961170;28;20062;-83
2023/08/24 06:01:38;;;;;;;3.85;2.10;;;17.50;99.90;;;;;;4960256;28;20117;-83
2023/08/24 06:04:08;;;;;;;3.05;2.00;;;17.50;99.90;;;;;;4941259;28;20043;-81
2023/08/24 06:06:37;;;;;;;;;;;17.60;99.90;;;;;;4962905;28;20341;-81
2023/08/24 06:09:06;;;;;;;2.70;1.45;;;17.60;99.90;;;;;;4963684;28;19922;-84
2023/08/24 06:11:33;;;;;;;4.20;1.80;;;17.70;99.90;;;;;;4960952;28;20073;-81
2023/08/24 06:13:59;;;;;;;2.28;1.63;;;17.70;99.90;;;;;;4958068;28;20295;-81
2023/08/24 06:16:24;;;;;;;2.78;1.58;;;17.80;99.90;;;;;;4948695;28;20042;-81
2023/08/24 06:18:50;;;;;;;3.88;2.20;;;17.80;99.90;;;;;;4966150;28;20033;-81
2023/08/24 06:21:16;;;;;;;3.80;2.03;;;17.90;99.90;;;;;;4944834;28;20484;-82
2023/08/24 06:23:42;;;;;;;4.45;2.78;;;18.00;99.90;;;;;;4961830;28;20387;-80
2023/08/24 06:26:08;;;;;;;4.32;2.20;;;18.00;99.90;;;;;;4958813;28;20031;-82
2023/08/24 06:28:34;;;;;;;3.60;2.70;;;18.10;99.90;;;;;;4958569;28;20027;-82
2023/08/24 06:31:00;;;;;;;5.88;2.75;;;18.20;99.90;;;;;;4947966;28;20492;-82
2023/08/24 06:33:33;;;;;;;3.30;2.53;;;18.30;99.90;;;;;;4944919;28;20070;-82
2023/08/24 06:35:59;;;;;;;4.90;2.45;;;18.50;99.90;;;;;;4963110;28;20405;-81
2023/08/24 06:38:25;;;;;;;4.03;3.00;;;18.60;99.90;;;;;;4959027;28;20047;-83
2023/08/24 06:40:51;;;;;;;3.38;2.22;;;18.70;99.90;;;;;;4963876;28;20027;-80
2023/08/24 06:43:17;;;;;;;3.88;2.92;;;18.80;99.90;;;;;;4958429;28;20027;-81
2023/08/24 06:45:44;;;;;;;4.65;2.42;;;19.00;99.90;;;;;;4943809;28;20125;-84
2023/08/24 06:48:10;;;;;;;2.92;2.60;;;19.20;99.90;;;;;;4959554;28;20031;-82
2023/08/24 06:50:36;;;;;;;4.57;2.50;;;19.40;99.90;;;;;;4955338;28;20035;-81
2023/08/24 06:53:03;;;;;;;3.85;2.47;;;19.50;99.90;;;;;;4958500;28;20033;-81
2023/08/24 06:55:29;;;;;;;6.10;3.40;;;19.70;99.90;;;;;;4962693;28;20471;-80
2023/08/24 06:57:55;;;;;;;3.22;2.38;;;19.90;99.90;;;;;;4959189;28;20031;-81
2023/08/24 07:00:21;;;;;;;3.40;2.42;;;20.10;99.90;;;;;;4961319;28;20026;-81
2023/08/24 07:02:48;;;;;;;3.15;2.80;;;20.20;99.90;;;;;;4943467;28;20054;-82
2023/08/24 07:05:14;;;;;;;3.70;2.67;;;20.40;99.90;;;;;;4955842;28;20043;-80
2023/08/24 07:07:44;;;;;;;4.72;2.90;;;20.40;99.90;;;;;;4958948;28;20030;-81
2023/08/24 07:10:10;;;;;;;3.72;2.47;;;20.50;99.90;;;;;;4958093;28;20050;-79
2023/08/24 07:15:21;;;;;;;5.03;2.40;;;20.60;99.90;;;;;;4951139;28;20043;-81
2023/08/24 07:17:47;;;;;;;4.15;2.72;;;20.90;99.90;;;;;;4956067;28;20034;-81
2023/08/24 07:20:13;;;;;;;4.43;2.63;;;21.10;99.90;;;;;;4946775;28;20027;-81
2023/08/24 07:22:39;;;;;;;5.57;2.30;;;21.20;99.90;;;;;;4950196;28;20100;-80
2023/08/24 07:25:05;;;;;;;3.92;2.38;;;21.30;99.90;;;;;;4958253;28;20475;-81
2023/08/24 07:27:34;;;;;;;5.32;2.88;;;21.50;99.90;;;;;;4962052;28;20038;-84
2023/08/24 07:30:03;;;;;;;4.05;2.63;;;21.60;99.90;;;;;;4958538;28;20061;-81
2023/08/24 07:32:29;;;;;;;4.35;2.75;;;21.80;99.90;;;;;;4962883;28;20022;-80
2023/08/24 07:34:57;;;;;;;4.60;2.78;;;21.90;99.90;;;;;;4955021;28;20030;-82
2023/08/24 07:37:22;;;;;;;5.07;2.70;;;21.90;99.90;;;;;;4943240;28;20039;-81
2023/08/24 07:39:48;;;;;;;4.65;3.00;;;22.00;99.90;;;;;;4944678;28;20074;-81
2023/08/24 07:42:14;;;;;;;4.22;3.10;;;22.20;99.90;;;;;;4959739;28;20050;-81
2023/08/24 07:44:39;;;;;;;5.45;2.78;;;22.30;99.90;;;;;;4959639;28;20090;-80
2023/08/24 07:47:05;;;;;;;4.10;2.58;;;22.50;99.90;;;;;;4968055;28;20110;-85
2023/08/24 07:49:31;;;;;;;3.58;2.85;;;22.50;99.90;;;;;;4965375;28;20796;-82
2023/08/24 07:51:58;;;;;;;4.70;2.60;;;22.60;99.90;;;;;;4963978;28;20118;-80
2023/08/24 07:54:24;;;;;;;3.75;2.45;;;22.70;99.90;;;;;;4959582;28;20114;-82
2023/08/24 07:56:50;;;;;;;4.07;2.35;;;22.80;99.90;;;;;;4964213;28;20550;-81
2023/08/24 07:59:16;;;;;;;3.45;2.47;;;22.90;99.90;;;;;;4959970;28;20027;-80
2023/08/24 08:01:41;;;;;;;4.15;2.63;;;23.00;99.90;;;;;;4958700;28;20122;-81
2023/08/24 08:04:07;;;;;;;4.28;2.50;;;23.10;99.90;;;;;;4963543;28;20526;-84
2023/08/24 08:06:33;;;;;;;3.90;2.55;;;23.40;99.90;;;;;;4957123;28;20035;-81
2023/08/24 08:09:00;;;;;;;4.43;2.42;;;23.50;99.90;;;;;;4962830;28;20031;-81
2023/08/24 08:11:26;;;;;;;5.18;2.45;;;23.70;99.90;;;;;;4951414;28;21351;-81
2023/08/24 08:13:51;;;;;;;5.50;2.45;;;23.70;99.90;;;;;;4949819;28;20028;-81
2023/08/24 08:16:17;;;;;;;6.53;2.47;;;23.90;99.90;;;;;;4963589;28;20030;-80
2023/08/24 08:18:43;;;;;;;4.90;2.83;;;24.10;99.90;;;;;;4963121;28;20026;-84
2023/08/24 08:21:19;;;;;;;3.92;2.65;;;24.10;99.90;;;;;;4962538;28;20562;-82
2023/08/24 08:23:45;;;;;;;4.13;2.92;;;24.10;99.90;;;;;;4953740;28;20026;-80
2023/08/24 08:26:13;;;;;;;5.60;2.55;;;24.30;99.90;;;;;;4947111;28;20027;-82
2023/08/24 08:28:39;;;;;;;4.82;2.20;;;24.40;99.90;;;;;;4963249;28;20044;-81
2023/08/24 08:31:05;;;;;;;3.88;1.60;;;24.60;99.90;;;;;;4954381;28;20470;-80
2023/08/24 08:33:31;;;;;;;4.85;2.85;;;24.60;99.90;;;;;;4959697;28;20110;-79
2023/08/24 08:35:57;;;;;;;4.80;3.08;;;24.40;99.90;;;;;;4964446;28;20154;-85
2023/08/24 08:38:25;;;;;;;4.28;1.90;;;24.50;99.90;;;;;;4958399;28;20429;-82
2023/08/24 08:40:54;;;;;;;4.68;1.85;;;24.60;99.90;;;;;;4963180;28;20027;-80
2023/08/24 08:43:22;;;;;;;3.42;1.98;;;24.70;99.90;;;;;;4944824;28;20038;-80
2023/08/24 08:45:53;;;;;;;3.85;2.28;;;24.60;99.90;;;;;;4975309;28;20027;-81
2023/08/24 08:48:21;;;;;;;3.72;2.30;;;24.90;99.90;;;;;;4960072;28;20026;-82
2023/08/24 08:50:51;;;;;;;2.88;2.08;;;24.80;99.90;;;;;;4953572;28;20066;-81
2023/08/24 08:53:20;;;;;;;4.13;1.30;;;24.90;99.90;;;;;;4955407;28;20019;-80
2023/08/24 08:55:46;;;;;;;4.22;1.60;;;25.10;99.90;;;;;;4946635;28;20031;-82
2023/08/24 08:58:12;;;;;;;3.92;2.65;;;25.00;99.90;;;;;;4959560;28;20066;-81
2023/08/24 09:00:38;;;;;;;3.63;1.60;;;25.00;99.90;;;;;;4957206;28;20464;-80
2023/08/24 09:03:04;;;;;;;2.95;1.65;;;25.00;99.90;;;;;;4957502;28;20035;-81
2023/08/24 09:05:31;;;;;;;4.63;1.55;;;25.00;99.90;;;;;;4957988;28;20435;-80
2023/08/24 09:07:59;;;;;;;3.67;1.65;;;25.20;99.90;;;;;;4958037;28;20034;-80
2023/08/24 09:10:25;;;;;;;4.55;1.92;;;25.20;99.90;;;;;;4942253;28;20038;-81
2023/08/24 09:12:51;;;;;;;3.42;1.65;;;25.30;99.90;;;;;;4957433;28;20403;-80
2023/08/24 09:15:28;;;;;;;4.35;2.25;;;25.30;99.90;;;;;;4960980;28;20073;-81
2023/08/24 09:17:56;;;;;;;4.15;1.60;;;25.30;99.90;;;;;;4957778;28;20031;-81
2023/08/24 09:20:21;;;;;;;4.22;1.88;;;25.60;99.90;;;;;;4958191;28;20039;-81
2023/08/24 09:22:47;;;;;;;3.05;1.67;;;25.60;99.90;;;;;;4960596;28;20418;-80
2023/08/24 09:25:13;;;;;;;3.33;2.10;;;25.70;99.90;;;;;;4964425;28;20169;-81
2023/08/24 09:27:39;;;;;;;2.03;0.88;;;25.60;99.90;;;;;;4960786;28;20031;-81
2023/08/24 09:30:08;;;;;;;3.22;1.55;;;25.60;99.90;;;;;;4961031;28;20157;-81
2023/08/24 09:32:33;;;;;;;4.13;1.38;;;25.80;99.90;;;;;;4955089;28;20109;-81
2023/08/24 09:35:05;;;;;;;3.05;1.45;;;25.90;99.90;;;;;;4959109;28;20126;-81
2023/08/24 09:37:35;;;;;;;3.80;1.20;;;26.10;99.90;;;;;;4955856;28;20391;-84
2023/08/24 09:40:07;;;;;;;3.05;0.95;;;26.10;99.90;;;;;;4955936;28;20031;-80
2023/08/24 09:42:42;;;;;;;5.22;1.85;;;26.30;99.90;;;;;;4960683;28;20078;-80
2023/08/24 09:45:12;;;;;;;1.95;1.00;;;26.20;99.90;;;;;;4958493;28;20047;-80
2023/08/24 09:47:38;;;;;;;3.10;0.90;;;26.30;99.90;;;;;;4957110;28;20502;-80
2023/08/24 09:50:05;;;;;;;2.38;1.27;;;26.20;99.90;;;;;;4967670;28;20035;-81
2023/08/24 09:52:34;;;;;;;2.60;1.23;;;26.00;99.90;;;;;;4962161;28;20054;-80
2023/08/24 09:55:07;;;;;;;;;;;26.20;99.90;;;;;;4970669;28;20498;-80
2023/08/24 09:57:38;;;;;;;3.80;0.93;;;26.30;99.90;;;;;;4954447;28;19957;-80
2023/08/24 10:00:10;;;;;;;3.15;0.85;;;26.30;99.90;;;;;;4961232;28;20423;-81
2023/08/24 10:02:45;;;;;;;2.00;0.95;;;26.40;99.90;;;;;;4940961;28;20091;-79
2023/08/24 10:05:20;;;;;;;3.03;1.25;;;26.40;99.90;;;;;;4961283;28;20035;-80
2023/08/24 10:07:51;;;;;;;2.88;1.30;;;26.60;99.90;;;;;;4956095;28;20043;-80
2023/08/24 10:10:19;;;;;;;2.20;0.93;;;26.50;99.90;;;;;;4962375;28;20570;-83
2023/08/24 10:12:51;;;;;;;3.88;1.05;;;26.70;99.90;;;;;;4955486;28;20023;-80
2023/08/24 10:15:18;;;;;;;2.55;1.20;;;26.60;99.90;;;;;;4961352;28;20117;-81
2023/08/24 10:17:45;;;;;;;1.98;0.80;;;26.20;99.90;;;;;;4962493;28;20028;-80
2023/08/24 10:20:11;;;;;;;3.60;1.50;;;26.30;99.90;;;;;;4957389;28;20125;-80
2023/08/24 10:22:40;;;;;;;3.00;1.35;;;26.00;99.90;;;;;;4957386;28;20126;-81
2023/08/24 10:25:09;;;;;;;2.95;1.10;;;25.90;99.90;;;;;;4962228;28;20039;-79
2023/08/24 10:27:35;;;;;;;4.35;1.13;;;25.90;99.90;;;;;;4959823;28;20405;-80
2023/08/24 10:30:01;;;;;;;2.30;0.85;;;25.90;99.90;;;;;;4957173;28;20034;-80
2023/08/24 10:32:27;;;;;;;3.25;1.00;;;25.90;99.90;;;;;;4959939;28;20074;-81
2023/08/24 10:34:53;;;;;;;2.15;0.90;;;25.90;99.90;;;;;;4964483;28;20129;-80
2023/08/24 10:37:26;;;;;;;3.05;0.88;;;26.00;99.90;;;;;;4955998;28;20114;-81
2023/08/24 10:39:52;;;;;;;1.88;0.82;;;26.00;99.90;;;;;;4944683;28;20106;-81
2023/08/24 10:42:18;;;;;;;3.72;0.82;;;26.00;99.90;;;;;;4959596;28;20031;-79
2023/08/24 10:44:47;;;;;;;2.92;0.80;;;26.10;99.90;;;;;;4956937;28;20078;-80
2023/08/24 10:47:19;;;;;;;2.30;0.95;;;26.20;99.90;;;;;;4950428;28;20039;-80
2023/08/24 10:49:59;;;;;;;1.50;0.50;;;26.00;99.90;;;;;;4962508;28;20138;-81
2023/08/24 10:52:33;;;;;;;1.98;0.70;;;26.00;99.90;;;;;;4945116;28;20059;-82
2023/08/24 10:55:02;;;;;;;2.28;0.80;;;25.90;99.90;;;;;;4956026;28;20035;-81
2023/08/24 10:57:43;;;;;;;2.33;0.90;;;25.90;99.90;;;;;;4957495;28;20479;-83
2023/08/24 11:00:10;;;;;;;2.35;1.00;;;25.60;99.90;;;;;;4956141;28;20685;-81
2023/08/24 11:02:50;;;;;;;3.05;1.10;;;25.40;99.90;;;;;;4959998;28;20086;-82
2023/08/24 11:05:21;;;;;;;2.58;1.30;;;25.30;99.90;;;;;;4943545;28;20097;-81
2023/08/24 11:08:11;;;;;;;3.92;1.33;;;25.30;99.90;;;;;;4952896;28;20488;-80
2023/08/24 11:10:43;;;;;;;3.45;1.00;;;25.10;99.90;;;;;;4954976;28;20044;-81
2023/08/24 11:13:27;;;;;;;2.63;0.90;;;25.10;99.90;;;;;;4961249;28;20038;-79
2023/08/24 11:15:58;;;;;;;2.65;0.95;;;25.10;99.90;;;;;;4938903;28;20054;-80
2023/08/24 11:18:28;;;;;;;3.17;1.45;;;24.90;99.90;;;;;;4959418;28;20038;-81
2023/08/24 11:21:06;;;;;;;2.97;1.40;;;24.80;99.90;;;;;;4945251;28;20026;-81
2023/08/24 11:23:33;;;;;;;4.70;1.33;;;24.70;99.90;;;;;;4957168;28;20425;-80
2023/08/24 11:26:00;;;;;;;3.47;1.30;;;24.70;99.90;;;;;;4955589;28;20588;-81
2023/08/24 11:28:27;;;;;;;2.40;0.95;;;24.70;99.90;;;;;;4957393;28;20043;-80
2023/08/24 11:30:54;;;;;;;2.83;1.10;;;24.70;99.90;;;;;;4954236;28;20065;-81
2023/08/24 11:33:55;;;;;;;4.38;1.05;;;24.70;99.90;;;;;;4954354;28;20061;-80
2023/08/24 11:36:20;;;;;;;2.28;0.90;;;24.70;99.90;;;;;;4947597;28;20130;-81
2023/08/24 11:38:47;;;;;;;2.25;0.80;;;24.70;99.90;;;;;;4958995;28;20464;-81
2023/08/24 11:41:18;;;;;;;4.28;0.80;;;24.90;99.90;;;;;;4959263;28;20534;-81
2023/08/24 11:43:45;;;;;;;2.63;0.93;;;25.10;99.90;;;;;;4962075;28;20114;-81
2023/08/24 11:46:11;;;;;;;3.00;0.95;;;25.30;99.90;;;;;;4953824;28;20046;-81
2023/08/24 11:48:39;;;;;;;3.28;0.90;;;25.50;99.90;;;;;;4961671;28;20031;-82
2023/08/24 11:51:09;;;;;;;3.30;0.90;;;25.70;99.90;;;;;;4957816;28;20047;-80
2023/08/24 11:53:42;;;;;;;2.10;1.05;;;25.90;99.90;;;;;;4959121;28;20041;-82
2023/08/24 11:56:10;;;;;;;2.15;0.65;;;25.90;99.90;;;;;;4955448;28;20035;-81
2023/08/24 11:58:47;;;;;;;2.10;0.90;;;26.00;99.90;;;;;;4956484;28;20271;-79
2023/08/24 12:01:13;;;;;;;3.03;0.70;;;26.00;99.90;;;;;;4954846;28;20029;-81
2023/08/24 12:03:39;;;;;;;2.45;0.82;;;26.20;99.90;;;;;;4950557;28;20051;-81
2023/08/24 12:06:16;;;;;;;4.00;0.90;;;26.30;99.90;;;;;;4957380;28;20031;-81
2023/08/24 12:08:45;;;;;;;3.25;0.90;;;26.20;99.90;;;;;;4956621;28;20074;-82
2023/08/24 12:11:19;;;;;;;1.98;0.63;;;26.40;99.90;;;;;;4954702;28;20075;-81
2023/08/24 12:13:51;;;;;;;3.13;1.05;;;26.30;99.90;;;;;;4944570;28;20034;-82
2023/08/24 12:16:18;;;;;;;4.30;0.70;;;26.40;99.90;;;;;;4945973;28;20431;-81
2023/08/24 12:19:02;;;;;;;3.67;0.80;;;26.50;99.90;;;;;;4937983;28;20090;-82
2023/08/24 12:21:29;;;;;;;1.75;0.60;;;26.30;99.90;;;;;;4955836;28;20043;-82
2023/08/24 12:24:03;;;;;;;3.53;0.70;;;26.40;99.90;;;;;;4956254;28;20082;-82
2023/08/24 12:26:29;;;;;;;2.25;0.70;;;26.30;99.90;;;;;;4959498;28;20041;-81
2023/08/24 12:29:06;;;;;;;4.22;0.80;;;26.40;99.90;;;;;;4948209;28;20102;-80
2023/08/24 12:31:32;;;;;;;3.08;0.70;;;26.30;99.90;;;;;;4961258;28;20034;-82
2023/08/24 12:34:11;;;;;;;1.80;0.70;;;26.40;99.90;;;;;;4959466;28;20059;-82
2023/08/24 12:36:39;;;;;;;1.95;0.60;;;26.40;99.90;;;;;;4959218;28;20038;-82
2023/08/24 12:39:06;;;;;;;4.60;0.80;;;26.50;99.90;;;;;;4945746;28;20456;-82
2023/08/24 12:41:32;;;;;;;2.17;0.70;;;26.60;99.90;;;;;;4962668;28;20089;-82
2023/08/24 12:43:58;;;;;;;1.83;0.70;;;26.40;99.90;;;;;;4963869;28;20482;-83
2023/08/24 12:46:25;;;;;;;2.33;0.77;;;26.40;99.90;;;;;;4961966;28;20066;-80
2023/08/24 12:48:51;;;;;;;1.50;0.70;;;26.20;99.90;;;;;;4958582;28;20531;-83
2023/08/24 12:51:17;;;;;;;2.45;0.90;;;26.20;99.90;;;;;;4945647;28;20095;-82
2023/08/24 12:53:43;;;;;;;3.50;0.73;;;26.20;99.90;;;;;;4960710;28;20114;-83